createdAt,value
2019-03-19T00:00:32.848Z,136.37
2019-03-19T00:03:02.005Z,132.90
2019-03-19T00:05:29.120Z,134.22
2019-03-19T00:07:56.225Z,134.22
2019-03-19T00:10:24.340Z,133.87
2019-03-19T00:12:51.383Z,133.12
2019-03-19T00:15:18.767Z,133.47
2019-03-19T00:17:46.089Z,133.18
2019-03-19T00:20:13.354Z,133.93
2019-03-19T00:22:40.401Z,133.97
2019-03-19T00:25:08.640Z,134.07
2019-03-19T00:27:35.691Z,134.82
2019-03-19T00:30:04.454Z,135.22
2019-03-19T00:32:32.554Z,134.80
2019-03-19T00:35:01.417Z,134.75
2019-03-19T00:37:28.515Z,135.65
2019-03-19T00:39:56.793Z,134.52
2019-03-19T00:42:23.835Z,134.37
2019-03-19T00:44:50.890Z,133.55
2019-03-19T00:47:18.071Z,134.43
2019-03-19T00:49:45.085Z,135.43
2019-03-19T00:52:12.416Z,135.05
2019-03-19T00:54:39.520Z,134.67
2019-03-19T00:57:06.632Z,135.12
2019-03-19T00:59:33.702Z,134.82
2019-03-19T01:02:00.806Z,135.03
2019-03-19T01:04:27.852Z,135.52
2019-03-19T01:06:55.014Z,135.40
2019-03-19T01:09:22.557Z,136.03
2019-03-19T01:11:51.175Z,136.03
2019-03-19T01:14:18.365Z,136.80
2019-03-19T01:16:46.656Z,135.30
2019-03-19T01:19:14.114Z,136.45
2019-03-19T01:21:41.185Z,135.97
2019-03-19T01:24:08.258Z,135.30
2019-03-19T01:26:35.303Z,134.30
2019-03-19T01:29:02.448Z,135.30
2019-03-19T01:31:29.826Z,135.93
2019-03-19T01:33:57.341Z,135.32
2019-03-19T01:36:24.382Z,135.07
2019-03-19T01:38:51.607Z,135.97
2019-03-19T01:41:18.920Z,136.77
2019-03-19T01:43:46.008Z,136.97
2019-03-19T01:46:14.900Z,136.95
2019-03-19T01:48:42.268Z,136.40
2019-03-19T01:51:09.355Z,133.87
2019-03-19T01:53:36.446Z,135.22
2019-03-19T01:56:05.403Z,134.95
2019-03-19T01:58:32.452Z,136.28
2019-03-19T02:01:00.786Z,134.50
2019-03-19T02:03:28.254Z,135.65
2019-03-19T02:05:55.446Z,134.47
2019-03-19T02:08:22.562Z,133.95
2019-03-19T02:10:50.728Z,134.90
2019-03-19T02:13:17.761Z,133.22
2019-03-19T02:15:44.951Z,133.85
2019-03-19T02:18:12.529Z,132.65
2019-03-19T02:20:39.564Z,133.47
2019-03-19T02:23:06.640Z,133.70
2019-03-19T02:25:34.844Z,133.22
2019-03-19T02:28:02.226Z,132.30
2019-03-19T02:30:29.355Z,132.37
2019-03-19T02:32:58.229Z,132.90
2019-03-19T02:35:25.240Z,132.57
2019-03-19T02:37:52.379Z,132.63
2019-03-19T02:40:20.530Z,133.75
2019-03-19T02:42:48.572Z,133.72
2019-03-19T02:45:15.708Z,134.03
2019-03-19T02:47:42.776Z,134.75
2019-03-19T02:50:09.941Z,133.82
2019-03-19T02:52:37.134Z,131.78
2019-03-19T02:55:05.938Z,133.65
2019-03-19T02:57:32.999Z,136.00
2019-03-19T03:00:00.622Z,133.63
2019-03-19T03:02:27.854Z,134.00
2019-03-19T03:04:55.295Z,133.55
2019-03-19T03:07:22.410Z,130.47
2019-03-19T03:09:51.240Z,132.63
2019-03-19T03:12:18.318Z,132.05
2019-03-19T03:14:46.333Z,131.67
2019-03-19T03:17:13.563Z,132.55
2019-03-19T03:19:40.767Z,132.65
2019-03-19T03:22:07.829Z,132.63
2019-03-19T03:24:34.881Z,133.78
2019-03-19T03:27:02.524Z,134.05
2019-03-19T03:29:32.550Z,135.03
2019-03-19T03:31:59.654Z,133.05
2019-03-19T03:34:27.974Z,133.78
2019-03-19T03:36:55.103Z,132.35
2019-03-19T03:39:22.297Z,134.45
2019-03-19T03:41:49.646Z,133.27
2019-03-19T03:44:17.527Z,132.35
2019-03-19T03:46:44.632Z,133.80
2019-03-19T03:49:12.772Z,133.60
2019-03-19T03:51:40.294Z,133.32
2019-03-19T03:54:07.323Z,176.60
2019-03-19T03:56:36.340Z,148.62
2019-03-19T03:59:03.453Z,144.47
2019-03-19T04:01:30.720Z,133.97
2019-03-19T04:03:57.751Z,132.95
2019-03-19T04:06:24.870Z,135.43
2019-03-19T04:08:51.930Z,132.35
2019-03-19T04:11:19.506Z,131.87
2019-03-19T04:13:46.649Z,131.63
2019-03-19T04:16:13.690Z,131.63
2019-03-19T04:18:41.150Z,133.40
2019-03-19T04:21:10.239Z,131.45
2019-03-19T04:23:37.325Z,130.27
2019-03-19T04:26:04.360Z,131.70
2019-03-19T04:28:31.443Z,132.95
2019-03-19T04:30:59.679Z,132.35
2019-03-19T04:33:26.716Z,131.90
2019-03-19T04:35:53.816Z,131.90
2019-03-19T04:38:20.858Z,131.05
2019-03-19T04:40:49.603Z,131.70
2019-03-19T04:43:17.225Z,131.97
2019-03-19T04:45:44.280Z,131.30
2019-03-19T04:48:11.328Z,132.80
2019-03-19T04:50:39.745Z,131.87
2019-03-19T04:53:06.851Z,131.70
2019-03-19T04:55:34.084Z,130.40
2019-03-19T04:58:01.452Z,129.70
2019-03-19T05:00:28.528Z,130.00
2019-03-19T05:02:55.587Z,132.40
2019-03-19T05:05:23.976Z,131.43
2019-03-19T05:07:51.016Z,129.87
2019-03-19T05:10:18.261Z,130.53
2019-03-19T05:12:46.664Z,130.87
2019-03-19T05:15:13.764Z,130.30
2019-03-19T05:17:41.089Z,129.95
2019-03-19T05:20:08.921Z,130.97
2019-03-19T05:22:36.020Z,130.57
2019-03-19T05:25:03.466Z,130.13
2019-03-19T05:27:37.268Z,130.35
2019-03-19T05:29:59.581Z,130.07
2019-03-19T05:32:26.656Z,130.73
2019-03-19T05:34:54.878Z,131.27
2019-03-19T05:37:21.897Z,131.63
2019-03-19T05:39:48.937Z,131.37
2019-03-19T05:42:16.009Z,131.12
2019-03-19T05:44:44.336Z,132.32
2019-03-19T05:47:11.482Z,136.45
2019-03-19T05:49:38.613Z,132.03
2019-03-19T05:52:05.648Z,131.67
2019-03-19T05:54:32.768Z,131.20
2019-03-19T05:56:59.878Z,131.15
2019-03-19T05:59:27.369Z,133.03
2019-03-19T06:01:54.407Z,131.80
2019-03-19T06:04:21.501Z,134.72
2019-03-19T06:06:48.522Z,134.52
2019-03-19T06:09:15.564Z,135.10
2019-03-19T06:11:42.689Z,134.07
2019-03-19T06:14:10.741Z,136.68
2019-03-19T06:16:37.958Z,134.00
2019-03-19T06:19:05.034Z,133.40
2019-03-19T06:21:32.407Z,133.57
2019-03-19T06:23:59.977Z,134.72
2019-03-19T06:26:27.039Z,135.43
2019-03-19T06:28:54.079Z,134.93
2019-03-19T06:31:21.569Z,136.50
2019-03-19T06:33:48.641Z,136.72
2019-03-19T06:36:15.795Z,137.82
2019-03-19T06:38:43.541Z,136.18
2019-03-19T06:41:10.707Z,135.48
2019-03-19T06:43:37.750Z,135.88
2019-03-19T06:46:04.786Z,136.97
2019-03-19T06:48:31.896Z,136.97
2019-03-19T06:50:59.007Z,137.77
2019-03-19T06:53:26.382Z,139.52
2019-03-19T06:55:54.031Z,144.15
2019-03-19T06:58:21.125Z,140.90
2019-03-19T07:00:51.201Z,143.57
2019-03-19T07:03:28.932Z,144.93
2019-03-19T07:06:25.031Z,143.37
2019-03-19T07:08:53.481Z,142.07
2019-03-19T07:11:20.832Z,142.68
2019-03-19T07:13:49.179Z,144.70
2019-03-19T07:16:16.350Z,142.62
2019-03-19T07:18:43.768Z,142.55
2019-03-19T07:21:12.607Z,145.95
2019-03-19T07:23:39.723Z,145.30
2019-03-19T07:26:07.128Z,144.17
2019-03-19T07:28:34.190Z,145.72
2019-03-19T07:31:01.302Z,144.32
2019-03-19T07:33:28.841Z,145.55
2019-03-19T07:35:56.152Z,145.47
2019-03-19T07:38:23.266Z,146.87
2019-03-19T07:40:50.406Z,148.43
2019-03-19T07:43:17.481Z,145.95
2019-03-19T07:45:46.036Z,144.22
2019-03-19T07:48:13.520Z,143.62
2019-03-19T07:50:40.560Z,143.43
2019-03-19T07:53:14.234Z,144.32
2019-03-19T07:55:41.269Z,144.28
2019-03-19T07:58:08.296Z,143.07
2019-03-19T08:00:35.371Z,143.90
2019-03-19T08:03:15.655Z,143.72
2019-03-19T08:05:34.410Z,144.57
2019-03-19T08:08:01.459Z,148.47
2019-03-19T08:10:28.515Z,145.68
2019-03-19T08:12:56.181Z,147.40
2019-03-19T08:15:23.279Z,147.87
2019-03-19T08:17:50.930Z,147.43
2019-03-19T08:20:17.960Z,147.22
2019-03-19T08:22:45.055Z,148.35
2019-03-19T08:25:12.791Z,149.95
2019-03-19T08:27:39.867Z,149.20
2019-03-19T08:30:09.660Z,151.93
2019-03-19T08:32:36.709Z,148.80
2019-03-19T08:35:07.206Z,151.00
2019-03-19T08:37:34.260Z,147.53
2019-03-19T08:40:01.280Z,147.15
2019-03-19T08:42:30.698Z,144.97
2019-03-19T08:44:58.952Z,145.57
2019-03-19T08:47:25.984Z,144.60
2019-03-19T08:49:53.024Z,145.43
2019-03-19T08:52:20.230Z,145.60
2019-03-19T08:54:47.905Z,144.85
2019-03-19T08:57:14.969Z,145.60
2019-03-19T08:59:42.028Z,143.52
2019-03-19T09:02:09.126Z,144.77
2019-03-19T09:04:37.178Z,142.93
2019-03-19T09:07:04.231Z,144.65
2019-03-19T09:09:31.805Z,142.70
2019-03-19T09:11:58.964Z,142.65
2019-03-19T09:14:26.055Z,142.30
2019-03-19T09:16:55.844Z,142.98
2019-03-19T09:19:22.897Z,138.45
2019-03-19T09:21:49.946Z,140.90
2019-03-19T09:24:17.346Z,139.52
2019-03-19T09:26:44.396Z,140.68
2019-03-19T09:29:16.944Z,140.62
2019-03-19T09:31:40.723Z,139.92
2019-03-19T09:34:07.789Z,140.37
2019-03-19T09:36:34.898Z,140.47
2019-03-19T09:39:02.065Z,145.62
2019-03-19T09:41:31.239Z,141.97
2019-03-19T09:43:58.297Z,141.35
2019-03-19T09:46:25.686Z,142.10
2019-03-19T09:48:52.732Z,141.43
2019-03-19T09:51:19.857Z,142.18
2019-03-19T09:53:46.878Z,142.20
2019-03-19T09:56:14.241Z,141.68
2019-03-19T09:58:41.285Z,140.88
2019-03-19T10:01:10.303Z,140.65
2019-03-19T10:03:38.654Z,142.40
2019-03-19T10:06:13.868Z,140.47
2019-03-19T10:08:34.691Z,139.80
2019-03-19T10:11:01.747Z,138.92
2019-03-19T10:13:28.912Z,140.47
2019-03-19T10:15:56.388Z,139.32
2019-03-19T10:18:23.411Z,141.75
2019-03-19T10:20:50.479Z,140.40
2019-03-19T10:23:17.883Z,139.40
2019-03-19T10:25:45.022Z,138.95
2019-03-19T10:28:12.142Z,141.03
2019-03-19T10:30:39.857Z,139.05
2019-03-19T10:33:07.047Z,138.18
2019-03-19T10:35:34.260Z,135.85
2019-03-19T10:38:03.226Z,139.05
2019-03-19T10:40:30.587Z,135.55
2019-03-19T10:42:57.696Z,136.75
2019-03-19T10:45:24.812Z,137.32
2019-03-19T10:47:55.199Z,138.30
2019-03-19T10:50:22.311Z,136.47
2019-03-19T10:52:49.441Z,136.75
2019-03-19T10:55:16.559Z,138.45
2019-03-19T10:57:43.959Z,139.22
2019-03-19T11:00:14.696Z,139.40
2019-03-19T11:02:41.909Z,140.92
2019-03-19T11:05:11.620Z,140.37
2019-03-19T11:07:38.660Z,140.90
2019-03-19T11:10:05.832Z,142.72
2019-03-19T11:12:32.931Z,142.82
2019-03-19T11:15:00.420Z,143.22
2019-03-19T11:17:28.554Z,143.90
2019-03-19T11:19:55.829Z,144.40
2019-03-19T11:22:22.897Z,146.87
2019-03-19T11:24:51.761Z,146.07
2019-03-19T11:27:19.087Z,147.22
2019-03-19T11:29:46.147Z,148.02
2019-03-19T11:32:13.185Z,146.90
2019-03-19T11:34:41.382Z,145.25
2019-03-19T11:37:08.453Z,145.30
2019-03-19T11:39:35.542Z,145.87
2019-03-19T11:42:03.042Z,142.90
2019-03-19T11:44:30.107Z,143.22
2019-03-19T11:46:57.155Z,141.85
2019-03-19T11:49:24.543Z,142.75
2019-03-19T11:51:51.583Z,139.88
2019-03-19T11:54:18.635Z,140.45
2019-03-19T11:56:45.713Z,141.73
2019-03-19T11:59:12.916Z,140.95
2019-03-19T12:01:40.318Z,139.70
2019-03-19T12:04:09.040Z,140.03
2019-03-19T12:06:36.045Z,143.40
2019-03-19T12:09:05.752Z,143.37
2019-03-19T12:11:33.631Z,147.68
2019-03-19T12:14:01.016Z,146.07
2019-03-19T12:16:28.558Z,146.35
2019-03-19T12:18:55.729Z,145.92
2019-03-19T12:21:22.844Z,145.57
2019-03-19T12:23:50.291Z,141.77
2019-03-19T12:26:19.579Z,141.88
2019-03-19T12:28:47.723Z,141.28
2019-03-19T12:31:15.256Z,141.82
2019-03-19T12:33:42.406Z,142.90
2019-03-19T12:36:09.466Z,142.77
2019-03-19T12:38:37.037Z,143.80
2019-03-19T12:41:04.118Z,147.13
2019-03-19T12:43:32.328Z,148.25
2019-03-19T12:45:59.365Z,145.75
2019-03-19T12:48:26.411Z,145.68
2019-03-19T12:50:53.500Z,144.62
2019-03-19T12:53:22.208Z,145.10
2019-03-19T12:55:49.646Z,143.32
2019-03-19T12:58:16.803Z,141.60
2019-03-19T13:00:44.443Z,142.60
2019-03-19T13:03:12.885Z,143.62
2019-03-19T13:05:40.462Z,143.93
2019-03-19T13:08:08.717Z,144.75
2019-03-19T13:10:37.026Z,144.57
2019-03-19T13:13:09.597Z,143.57
2019-03-19T13:15:38.748Z,143.68
2019-03-19T13:18:06.481Z,147.13
2019-03-19T13:20:34.029Z,142.62
2019-03-19T13:23:01.373Z,143.05
2019-03-19T13:25:28.579Z,142.72
2019-03-19T13:27:57.461Z,143.68
2019-03-19T13:30:24.649Z,143.30
2019-03-19T13:32:53.995Z,142.28
2019-03-19T13:35:21.475Z,147.82
2019-03-19T13:37:48.524Z,144.87
2019-03-19T13:40:16.260Z,144.37
2019-03-19T13:42:45.138Z,148.65
2019-03-19T13:45:12.863Z,147.07
2019-03-19T13:47:39.927Z,147.95
2019-03-19T13:50:07.775Z,145.82
2019-03-19T13:52:34.814Z,144.75
2019-03-19T13:55:05.561Z,145.53
2019-03-19T13:57:49.848Z,146.57
2019-03-19T14:00:26.677Z,145.47
2019-03-19T14:02:54.508Z,146.10
2019-03-19T14:05:21.573Z,147.40
2019-03-19T14:07:48.617Z,147.30
2019-03-19T14:10:15.973Z,148.68
2019-03-19T14:13:03.897Z,149.80
2019-03-19T14:15:41.917Z,148.02
2019-03-19T14:18:10.366Z,150.45
2019-03-19T14:20:37.422Z,149.53
2019-03-19T14:23:04.597Z,146.18
2019-03-19T14:25:31.634Z,146.18
2019-03-19T14:27:58.732Z,146.28
2019-03-19T14:30:27.428Z,145.62
2019-03-19T14:32:54.494Z,147.95
2019-03-19T14:35:23.589Z,146.77
2019-03-19T14:37:52.212Z,149.57
2019-03-19T14:40:21.471Z,148.60
2019-03-19T14:42:48.670Z,148.87
2019-03-19T14:45:16.165Z,146.87
2019-03-19T14:47:44.028Z,148.82
2019-03-19T14:50:12.259Z,150.18
2019-03-19T14:52:43.717Z,149.93
2019-03-19T14:55:10.268Z,151.12
2019-03-19T14:57:37.502Z,151.82
2019-03-19T15:00:07.625Z,150.62
2019-03-19T15:02:34.979Z,153.80
2019-03-19T15:05:02.433Z,147.32
2019-03-19T15:07:29.574Z,150.78
2019-03-19T15:09:58.111Z,151.20
2019-03-19T15:12:25.153Z,148.05
2019-03-19T15:14:52.351Z,144.10
2019-03-19T15:17:22.680Z,142.37
2019-03-19T15:19:54.102Z,144.35
2019-03-19T15:22:31.898Z,143.80
2019-03-19T15:24:51.296Z,141.95
2019-03-19T15:27:18.736Z,143.40
2019-03-19T15:29:45.800Z,142.03
2019-03-19T15:32:12.905Z,142.18
2019-03-19T15:34:40.114Z,141.45
2019-03-19T15:37:07.169Z,143.82
2019-03-19T15:39:41.185Z,150.30
2019-03-19T15:42:11.888Z,145.00
2019-03-19T15:44:38.956Z,148.80
2019-03-19T15:47:06.158Z,147.37
2019-03-19T15:49:38.407Z,145.07
2019-03-19T15:52:06.702Z,145.38
2019-03-19T15:54:35.115Z,149.32
2019-03-19T15:57:02.187Z,146.37
2019-03-19T15:59:29.371Z,146.60
2019-03-19T16:01:57.605Z,147.05
2019-03-19T16:04:26.059Z,144.43
2019-03-19T16:06:53.195Z,143.20
2019-03-19T16:09:20.372Z,142.22
2019-03-19T16:11:48.059Z,141.47
2019-03-19T16:14:15.206Z,141.73
2019-03-19T16:16:42.254Z,140.62
2019-03-19T16:19:09.745Z,143.57
2019-03-19T16:21:36.799Z,139.15
2019-03-19T16:24:03.836Z,141.00
2019-03-19T16:26:30.881Z,143.55
2019-03-19T16:29:02.068Z,141.25
2019-03-19T16:31:29.460Z,142.30
2019-03-19T16:34:03.013Z,143.90
2019-03-19T16:36:38.710Z,141.47
2019-03-19T16:39:06.468Z,141.32
2019-03-19T16:41:33.597Z,148.50
2019-03-19T16:44:05.104Z,152.25
2019-03-19T16:46:32.504Z,142.25
2019-03-19T16:48:59.606Z,141.57
2019-03-19T16:51:26.965Z,150.93
2019-03-19T16:53:54.583Z,148.10
2019-03-19T16:56:23.071Z,142.03
2019-03-19T16:58:57.509Z,156.12
2019-03-19T17:01:24.589Z,145.10
2019-03-19T17:03:52.074Z,141.77
2019-03-19T17:06:20.244Z,153.15
2019-03-19T17:08:47.403Z,142.60
2019-03-19T17:11:14.523Z,140.28
2019-03-19T17:13:41.717Z,141.15
2019-03-19T17:16:08.982Z,140.35
2019-03-19T17:18:36.385Z,139.70
2019-03-19T17:21:04.841Z,140.28
2019-03-19T17:23:32.924Z,139.90
2019-03-19T17:26:01.911Z,139.07
2019-03-19T17:28:29.482Z,141.05
2019-03-19T17:30:56.520Z,139.10
2019-03-19T17:33:24.054Z,139.43
2019-03-19T17:35:51.450Z,139.95
2019-03-19T17:38:19.735Z,139.95
2019-03-19T17:40:47.910Z,136.97
2019-03-19T17:43:16.708Z,137.95
2019-03-19T17:45:43.808Z,138.30
2019-03-19T17:48:16.404Z,138.07
2019-03-19T17:50:42.279Z,136.35
2019-03-19T17:53:11.185Z,138.07
2019-03-19T17:55:39.416Z,137.22
2019-03-19T17:58:06.619Z,136.43
2019-03-19T18:00:34.907Z,136.30
2019-03-19T18:03:03.482Z,135.60
2019-03-19T18:05:32.762Z,136.20
2019-03-19T18:07:59.851Z,138.12
2019-03-19T18:10:26.943Z,136.65
2019-03-19T18:12:54.265Z,137.43
2019-03-19T18:15:21.701Z,137.07
2019-03-19T18:17:48.838Z,135.97
2019-03-19T18:20:16.209Z,137.37
2019-03-19T18:22:44.267Z,135.05
2019-03-19T18:25:11.786Z,136.40
2019-03-19T18:27:39.176Z,135.90
2019-03-19T18:30:08.088Z,135.85
2019-03-19T18:32:35.622Z,136.35
2019-03-19T18:35:03.512Z,139.07
2019-03-19T18:37:31.766Z,138.03
2019-03-19T18:39:59.021Z,135.93
2019-03-19T18:42:26.422Z,135.18
2019-03-19T18:44:55.007Z,135.32
2019-03-19T18:47:22.102Z,135.85
2019-03-19T18:49:54.540Z,137.88
2019-03-19T18:52:22.089Z,141.65
2019-03-19T18:54:49.184Z,139.18
2019-03-19T18:57:16.277Z,142.72
2019-03-19T18:59:43.351Z,137.28
2019-03-19T19:02:10.437Z,136.60
2019-03-19T19:04:39.367Z,137.77
2019-03-19T19:07:06.629Z,137.43
2019-03-19T19:09:33.722Z,135.20
2019-03-19T19:12:01.045Z,135.65
2019-03-19T19:14:28.129Z,134.70
2019-03-19T19:16:55.234Z,132.82
2019-03-19T19:19:22.716Z,135.18
2019-03-19T19:21:52.278Z,133.03
2019-03-19T19:24:19.346Z,135.05
2019-03-19T19:26:49.370Z,149.18
2019-03-19T19:29:18.363Z,141.97
2019-03-19T19:31:45.462Z,135.52
2019-03-19T19:34:13.240Z,134.00
2019-03-19T19:36:40.398Z,134.57
2019-03-19T19:39:07.904Z,134.50
2019-03-19T19:41:35.463Z,132.72
2019-03-19T19:44:02.652Z,133.55
2019-03-19T19:46:29.976Z,134.57
2019-03-19T19:48:57.210Z,133.57
2019-03-19T19:51:24.288Z,134.10
2019-03-19T19:54:26.492Z,135.18
2019-03-19T19:57:02.061Z,135.28
2019-03-19T19:59:29.235Z,134.95
2019-03-19T20:01:56.330Z,136.52
2019-03-19T20:04:23.399Z,135.65
2019-03-19T20:06:50.511Z,135.85
2019-03-19T20:09:18.037Z,134.27
2019-03-19T20:11:45.119Z,133.72
2019-03-19T20:14:12.348Z,133.40
2019-03-19T20:16:39.434Z,132.75
2019-03-19T20:19:06.622Z,132.37
2019-03-19T20:21:33.863Z,132.87
2019-03-19T20:24:00.962Z,133.63
2019-03-19T20:26:28.283Z,133.35
2019-03-19T20:28:56.019Z,133.65
2019-03-19T20:31:23.084Z,134.55
2019-03-19T20:33:50.336Z,132.97
2019-03-19T20:36:17.474Z,135.07
2019-03-19T20:38:44.585Z,132.47
2019-03-19T20:41:11.682Z,131.93
2019-03-19T20:43:39.222Z,133.37
2019-03-19T20:46:06.397Z,133.57
2019-03-19T20:48:35.904Z,133.30
2019-03-19T20:51:03.832Z,133.27
2019-03-19T20:53:32.004Z,135.25
2019-03-19T20:55:59.161Z,135.30
2019-03-19T20:58:26.295Z,133.67
2019-03-19T21:00:55.160Z,132.60
2019-03-19T21:03:22.231Z,132.60
2019-03-19T21:05:49.553Z,132.55
2019-03-19T21:08:17.187Z,132.43
2019-03-19T21:10:44.315Z,133.35
2019-03-19T21:13:14.350Z,132.95
2019-03-19T21:15:41.405Z,131.75
2019-03-19T21:18:08.575Z,133.00
2019-03-19T21:20:35.682Z,133.90
2019-03-19T21:23:04.861Z,133.30
2019-03-19T21:25:31.986Z,131.85
2019-03-19T21:27:59.156Z,132.57
2019-03-19T21:30:26.419Z,134.45
2019-03-19T21:32:53.532Z,134.65
2019-03-19T21:35:28.636Z,135.93
2019-03-19T21:37:56.457Z,137.65
2019-03-19T21:40:26.353Z,133.85
2019-03-19T21:43:05.734Z,135.35
2019-03-19T21:45:35.022Z,131.97
2019-03-19T21:48:03.292Z,133.25
2019-03-19T21:50:30.521Z,136.55
2019-03-19T21:52:57.695Z,132.78
2019-03-19T21:55:25.146Z,132.70
2019-03-19T21:57:52.230Z,133.12
2019-03-19T22:00:19.471Z,132.75
2019-03-19T22:02:47.223Z,131.43
2019-03-19T22:05:15.956Z,131.60
2019-03-19T22:07:42.989Z,132.70
2019-03-19T22:10:11.532Z,132.18
2019-03-19T22:12:39.935Z,131.03
2019-03-19T22:15:13.446Z,131.37
2019-03-19T22:17:41.039Z,130.93
2019-03-19T22:20:09.599Z,129.80
2019-03-19T22:22:36.728Z,131.43
2019-03-19T22:25:05.333Z,131.03
2019-03-19T22:27:32.427Z,130.45
2019-03-19T22:29:59.615Z,130.15
2019-03-19T22:32:26.834Z,131.57
2019-03-19T22:34:53.984Z,130.12
2019-03-19T22:37:21.205Z,130.65
2019-03-19T22:39:48.320Z,132.95
2019-03-19T22:42:15.381Z,132.60
2019-03-19T22:44:42.778Z,132.27
2019-03-19T22:47:10.027Z,132.03
2019-03-19T22:49:37.065Z,132.35
2019-03-19T22:52:04.138Z,131.35
2019-03-19T22:54:31.423Z,133.05
2019-03-19T22:56:58.505Z,131.35
2019-03-19T22:59:26.043Z,130.18
2019-03-19T23:01:53.761Z,130.90
2019-03-19T23:04:27.258Z,130.78
2019-03-19T23:06:50.317Z,129.55
2019-03-19T23:09:17.500Z,129.87
2019-03-19T23:11:44.547Z,129.63
2019-03-19T23:14:12.118Z,130.10
2019-03-19T23:16:39.208Z,129.42
2019-03-19T23:19:08.006Z,130.82
2019-03-19T23:21:35.050Z,130.30
2019-03-19T23:24:02.464Z,130.90
2019-03-19T23:26:30.805Z,130.67
2019-03-19T23:28:57.958Z,131.22
2019-03-19T23:31:25.198Z,131.97
2019-03-19T23:33:53.531Z,128.68
2019-03-19T23:36:20.775Z,129.10
2019-03-19T23:38:47.939Z,130.03
2019-03-19T23:41:15.110Z,131.43
2019-03-19T23:43:43.284Z,131.22
2019-03-19T23:46:10.479Z,131.60
2019-03-19T23:48:37.615Z,129.60
2019-03-19T23:51:04.745Z,132.27
2019-03-19T23:53:31.923Z,129.07
2019-03-19T23:55:59.095Z,131.72
2019-03-19T23:58:26.242Z,128.90
